createdAt,value
2022-09-28T05:52:17.685Z,8.49
2022-09-28T05:54:44.336Z,8.49
2022-09-28T05:57:10.996Z,8.45
2022-09-28T05:59:38.036Z,8.42
2022-09-28T06:02:05.919Z,8.39
2022-09-28T06:04:32.783Z,8.36
2022-09-28T06:07:00.015Z,8.30
2022-09-28T06:09:26.900Z,8.24
2022-09-28T06:11:53.834Z,8.18
2022-09-28T06:14:20.903Z,8.13
2022-09-28T06:16:47.773Z,8.09
2022-09-28T06:19:14.477Z,8.08
2022-09-28T06:21:41.498Z,8.07
2022-09-28T06:24:08.454Z,8.05
2022-09-28T06:26:35.172Z,8.03
2022-09-28T06:29:03.572Z,8.01
2022-09-28T06:31:31.436Z,7.99
2022-09-28T06:33:59.392Z,7.98
2022-09-28T06:36:28.499Z,7.97
2022-09-28T06:38:55.130Z,7.98
2022-09-28T06:41:21.820Z,7.99
2022-09-28T06:43:49.143Z,8.01
2022-09-28T06:46:15.972Z,8.01
2022-09-28T06:48:44.323Z,8.01
2022-09-28T06:51:11.359Z,8.01
2022-09-28T06:53:37.988Z,8.01
2022-09-28T06:56:07.008Z,8.02
2022-09-28T06:58:33.813Z,8.02
2022-09-28T07:01:00.775Z,8.02
2022-09-28T07:03:27.848Z,8.05
2022-09-28T07:05:56.300Z,8.06
2022-09-28T07:08:25.400Z,8.07
2022-09-28T07:10:56.457Z,8.09
2022-09-28T07:13:46.883Z,8.11
2022-09-28T07:16:16.210Z,8.16
2022-09-28T07:18:43.020Z,8.19
2022-09-28T07:21:16.829Z,8.23
2022-09-28T07:23:53.862Z,8.28
2022-09-28T07:26:23.579Z,8.31
2022-09-28T07:28:51.343Z,8.33
2022-09-28T07:31:18.061Z,8.37
2022-09-28T07:33:46.246Z,8.46
2022-09-28T07:36:14.602Z,8.54
2022-09-28T07:38:41.463Z,8.66
2022-09-28T07:41:11.398Z,8.84
2022-09-28T07:43:39.916Z,8.93
2022-09-28T07:46:14.033Z,8.91
2022-09-28T07:48:42.259Z,8.91
2022-09-28T07:51:09.886Z,8.89
2022-09-28T07:53:38.439Z,8.87
2022-09-28T07:56:07.623Z,8.91
2022-09-28T07:58:38.858Z,9.02
2022-09-28T08:01:08.931Z,9.29
2022-09-28T08:03:35.750Z,9.50
2022-09-28T08:06:05.310Z,9.73
2022-09-28T08:08:34.427Z,9.92
2022-09-28T08:11:01.261Z,10.12
2022-09-28T08:13:27.922Z,10.35
2022-09-28T08:15:55.169Z,10.52
2022-09-28T08:18:23.397Z,10.51
2022-09-28T08:21:11.037Z,10.60
2022-09-28T08:23:38.463Z,10.67
2022-09-28T08:26:05.547Z,10.69
2022-09-28T08:28:33.680Z,10.70
2022-09-28T08:31:07.383Z,10.75
2022-09-28T08:33:35.053Z,10.87
2022-09-28T08:36:02.821Z,11.13
2022-09-28T08:38:31.120Z,11.22
2022-09-28T08:41:14.576Z,11.25
2022-09-28T08:44:00.355Z,11.30
2022-09-28T08:46:35.706Z,11.41
2022-09-28T08:49:26.733Z,11.52
2022-09-28T08:52:03.445Z,11.53
2022-09-28T08:54:45.197Z,11.52
2022-09-28T08:57:17.870Z,11.51
2022-09-28T08:59:52.349Z,11.53
2022-09-28T09:02:33.796Z,11.52
2022-09-28T09:05:06.191Z,11.67
2022-09-28T09:07:39.641Z,11.83
2022-09-28T09:10:31.018Z,11.90
2022-09-28T09:13:06.546Z,11.98
2022-09-28T09:15:48.227Z,12.03
2022-09-28T09:18:20.080Z,12.13
2022-09-28T09:20:52.597Z,12.62
2022-09-28T09:23:22.135Z,12.72
2022-09-28T09:25:56.564Z,12.74
2022-09-28T09:28:32.574Z,12.68
2022-09-28T09:31:11.332Z,12.62
2022-09-28T09:34:12.129Z,12.63
2022-09-28T09:36:56.822Z,12.64
2022-09-28T09:39:51.540Z,12.57
2022-09-28T09:42:39.302Z,12.51
2022-09-28T09:45:30.922Z,12.39
2022-09-28T09:48:10.237Z,12.28
2022-09-28T09:50:51.876Z,12.30
2022-09-28T09:53:30.363Z,12.45
2022-09-28T09:56:05.349Z,12.70
2022-09-28T09:58:38.416Z,12.70
2022-09-28T10:01:12.756Z,13.07
2022-09-28T10:03:42.994Z,13.14
2022-09-28T10:06:40.383Z,13.22
2022-09-28T10:09:14.073Z,13.29
2022-09-28T10:11:45.606Z,13.29
2022-09-28T10:14:21.608Z,13.39
2022-09-28T10:16:51.314Z,13.72
2022-09-28T10:19:21.469Z,13.91
2022-09-28T10:21:53.442Z,13.76
2022-09-28T10:24:30.158Z,13.69
2022-09-28T10:27:03.493Z,13.61
2022-09-28T10:29:40.741Z,13.56
2022-09-28T10:32:23.277Z,13.60
2022-09-28T10:34:51.648Z,13.52
2022-09-28T10:37:19.156Z,13.50
2022-09-28T10:39:50.088Z,13.52
2022-09-28T10:42:30.562Z,13.45
2022-09-28T10:45:05.145Z,13.58
2022-09-28T10:47:33.491Z,13.74
2022-09-28T10:50:01.148Z,13.81
2022-09-28T10:52:33.926Z,13.81
2022-09-28T10:55:00.717Z,13.70
2022-09-28T10:57:32.842Z,13.62
2022-09-28T10:59:59.587Z,13.52
2022-09-28T11:02:36.692Z,13.43
2022-09-28T11:05:06.413Z,13.44
2022-09-28T11:07:44.272Z,13.48
2022-09-28T11:10:21.702Z,13.62
2022-09-28T11:12:49.888Z,13.89
2022-09-28T11:15:24.666Z,14.04
2022-09-28T11:17:51.654Z,14.09
2022-09-28T11:20:27.358Z,14.13
2022-09-28T11:23:00.763Z,14.21
2022-09-28T11:25:29.787Z,14.33
2022-09-28T11:27:56.347Z,14.88
2022-09-28T11:30:41.000Z,15.71
2022-09-28T11:33:17.716Z,15.88
2022-09-28T11:36:00.600Z,16.03
2022-09-28T11:38:59.843Z,16.14
2022-09-28T11:41:49.931Z,16.18
2022-09-28T11:44:38.265Z,16.47
2022-09-28T11:47:53.234Z,16.73
2022-09-28T11:50:41.620Z,16.53
2022-09-28T11:53:43.849Z,16.06
2022-09-28T11:56:32.157Z,15.34
2022-09-28T11:59:12.745Z,14.84
2022-09-28T12:01:53.525Z,14.45
2022-09-28T12:04:26.988Z,14.18
2022-09-28T12:06:59.094Z,14.07
2022-09-28T12:09:37.300Z,14.21
2022-09-28T12:12:13.889Z,14.81
2022-09-28T12:14:41.291Z,15.29
2022-09-28T12:17:20.263Z,15.43
2022-09-28T12:19:58.541Z,15.42
2022-09-28T12:22:51.212Z,15.25
2022-09-28T12:25:22.977Z,14.91
2022-09-28T12:28:03.330Z,14.61
2022-09-28T12:30:35.996Z,14.40
2022-09-28T12:33:09.240Z,14.22
2022-09-28T12:36:26.386Z,14.08
2022-09-28T12:39:18.991Z,14.10
2022-09-28T12:41:57.965Z,14.06
2022-09-28T12:45:02.283Z,14.02
2022-09-28T12:47:31.711Z,13.97
2022-09-28T12:53:26.113Z,13.88
2022-09-28T12:55:56.506Z,13.82
2022-09-28T12:58:42.235Z,13.80
2022-09-28T13:01:40.794Z,13.77
2022-09-28T13:04:19.214Z,13.80
2022-09-28T13:07:00.908Z,13.98
2022-09-28T13:09:31.723Z,14.14
2022-09-28T13:12:03.906Z,14.47
2022-09-28T13:14:45.591Z,14.70
2022-09-28T13:17:25.793Z,15.20
2022-09-28T13:20:15.952Z,16.58
2022-09-28T13:22:57.524Z,18.47
2022-09-28T13:25:28.189Z,21.17
2022-09-28T13:28:16.051Z,23.61
2022-09-28T13:30:44.483Z,25.66
2022-09-28T13:33:20.663Z,27.20
2022-09-28T13:35:47.576Z,28.24
2022-09-28T13:38:20.807Z,29.06
2022-09-28T13:41:06.264Z,28.79
2022-09-28T13:43:49.148Z,29.51
2022-09-28T13:46:28.464Z,26.29
2022-09-28T13:49:24.535Z,23.70
2022-09-28T13:52:09.846Z,21.50
2022-09-28T13:55:09.183Z,19.43
2022-09-28T13:57:54.161Z,17.90
2022-09-28T14:00:29.117Z,16.96
2022-09-28T14:03:30.414Z,15.97
2022-09-28T14:06:21.718Z,15.35
2022-09-28T14:09:13.666Z,14.93
2022-09-28T14:12:00.778Z,14.74
2022-09-28T14:14:44.886Z,14.74
2022-09-28T14:17:23.687Z,14.85
2022-09-28T14:20:00.852Z,15.06
2022-09-28T14:22:57.906Z,15.49
2022-09-28T14:25:27.780Z,15.80
2022-09-28T14:28:23.251Z,16.22
2022-09-28T14:30:55.672Z,17.03
2022-09-28T14:33:22.277Z,21.37
2022-09-28T14:35:57.671Z,25.32
2022-09-28T14:39:02.851Z,28.11
2022-09-28T14:41:36.769Z,30.77
2022-09-28T14:44:09.294Z,31.45
2022-09-28T14:46:37.796Z,32.04
2022-09-28T14:49:19.798Z,33.01
2022-09-28T14:51:58.603Z,33.33
2022-09-28T14:54:28.342Z,34.21
2022-09-28T14:56:58.058Z,35.14
2022-09-28T14:59:26.240Z,35.24
2022-09-28T15:02:01.157Z,35.74
2022-09-28T15:04:31.045Z,34.16
2022-09-28T15:06:58.174Z,31.79
2022-09-28T15:09:28.887Z,27.45
2022-09-28T15:12:16.261Z,24.37
2022-09-28T15:14:47.859Z,22.11
2022-09-28T15:17:45.556Z,20.61
2022-09-28T15:20:39.149Z,19.52
2022-09-28T15:23:05.965Z,19.14
2022-09-28T15:25:32.971Z,20.63
2022-09-28T15:28:08.385Z,19.80
2022-09-28T15:30:36.766Z,19.19
2022-09-28T15:33:23.347Z,18.99
2022-09-28T15:36:03.221Z,22.07
2022-09-28T15:38:32.522Z,22.11
2022-09-28T15:41:02.854Z,20.48
2022-09-28T15:43:34.403Z,21.11
2022-09-28T15:46:15.431Z,25.87
2022-09-28T15:48:52.190Z,28.84
2022-09-28T15:51:22.139Z,30.38
2022-09-28T15:54:02.070Z,31.23
2022-09-28T15:56:29.699Z,28.87
2022-09-28T15:59:14.888Z,25.32
2022-09-28T16:01:43.872Z,23.01
2022-09-28T16:04:40.283Z,20.54
2022-09-28T16:07:13.102Z,19.11
2022-09-28T16:10:05.550Z,18.09
2022-09-28T16:12:38.332Z,17.56
2022-09-28T16:15:12.406Z,18.37
2022-09-28T16:17:39.209Z,19.67
2022-09-28T16:20:32.761Z,18.97
2022-09-28T16:23:08.072Z,18.08
2022-09-28T16:25:39.319Z,17.37
2022-09-28T16:28:06.925Z,16.82
2022-09-28T16:30:34.783Z,16.36
2022-09-28T16:33:05.925Z,16.00
2022-09-28T16:35:35.782Z,15.73
2022-09-28T16:38:16.360Z,15.54
2022-09-28T16:40:52.770Z,15.36
2022-09-28T16:43:27.268Z,15.33
2022-09-28T16:46:00.923Z,15.40
2022-09-28T16:48:30.207Z,15.28
2022-09-28T16:50:57.828Z,15.15
2022-09-28T16:53:43.500Z,15.04
2022-09-28T16:56:11.575Z,15.04
2022-09-28T16:58:39.101Z,15.06
2022-09-28T17:01:10.156Z,15.00
2022-09-28T17:03:36.984Z,14.96
2022-09-28T17:06:06.281Z,14.96
2022-09-28T17:08:33.966Z,14.98
2022-09-28T17:11:17.963Z,14.89
2022-09-28T17:13:47.869Z,14.77
2022-09-28T17:19:23.381Z,14.49
2022-09-28T17:21:51.988Z,14.40
2022-09-28T17:24:20.111Z,14.31
2022-09-28T17:26:49.346Z,14.25
2022-09-28T17:29:17.199Z,14.23
2022-09-28T17:31:45.359Z,14.19
2022-09-28T17:34:13.640Z,14.20
2022-09-28T17:36:42.071Z,14.25
2022-09-28T17:39:14.031Z,14.30
2022-09-28T17:41:41.158Z,14.31
2022-09-28T17:44:08.187Z,14.31
2022-09-28T17:46:38.895Z,14.28
2022-09-28T17:49:09.125Z,14.26
2022-09-28T17:51:37.754Z,14.24
2022-09-28T17:54:07.060Z,14.19
2022-09-28T17:56:34.599Z,14.12
2022-09-28T17:59:06.934Z,14.02
2022-09-28T18:01:39.167Z,13.94
2022-09-28T18:04:08.532Z,13.91
2022-09-28T18:06:37.197Z,13.88
2022-09-28T18:09:05.059Z,13.87
2022-09-28T18:11:32.916Z,13.87
2022-09-28T18:13:59.578Z,13.85
2022-09-28T18:16:28.837Z,13.74
2022-09-28T18:18:56.340Z,13.62
2022-09-28T18:21:23.036Z,13.52
2022-09-28T18:23:49.693Z,13.38
2022-09-28T18:26:19.844Z,13.30
2022-09-28T18:28:46.972Z,13.25
2022-09-28T18:31:15.351Z,13.27
2022-09-28T18:33:42.371Z,13.30
2022-09-28T18:36:09.002Z,13.26
2022-09-28T18:38:37.018Z,13.21
2022-09-28T18:41:14.657Z,13.14
2022-09-28T18:43:42.227Z,13.05
2022-09-28T18:46:11.238Z,12.96
2022-09-28T18:48:40.648Z,12.88
2022-09-28T18:51:12.031Z,12.80
2022-09-28T18:53:39.637Z,12.72
2022-09-28T18:56:11.756Z,12.65
2022-09-28T18:58:41.971Z,12.59
2022-09-28T19:01:28.964Z,12.53
2022-09-28T19:03:59.007Z,12.44
2022-09-28T19:06:25.646Z,12.40
2022-09-28T19:08:55.550Z,12.35
2022-09-28T19:12:22.159Z,12.31
2022-09-28T19:19:32.652Z,12.14
2022-09-28T19:22:59.128Z,12.09
2022-09-28T19:26:37.955Z,12.03
2022-09-28T19:30:04.603Z,11.95
2022-09-28T19:33:31.205Z,11.92
2022-09-28T19:36:00.728Z,11.86
2022-09-28T19:39:30.141Z,11.82
2022-09-28T19:42:56.613Z,11.75
2022-09-28T19:50:15.617Z,11.66
2022-09-28T19:53:42.048Z,11.61
2022-09-28T19:57:09.048Z,11.58
2022-09-28T20:00:35.575Z,11.55
2022-09-28T20:07:54.801Z,11.49
2022-09-28T20:10:21.478Z,11.45
2022-09-28T20:13:48.053Z,11.42
2022-09-28T20:17:14.477Z,11.38
2022-09-28T20:20:41.093Z,11.35
2022-09-28T20:27:51.737Z,11.26
2022-09-28T20:31:18.195Z,11.24
2022-09-28T20:38:35.987Z,11.16
2022-09-28T20:41:02.945Z,11.14
2022-09-28T20:43:34.562Z,11.08
2022-09-28T20:46:03.348Z,11.04
2022-09-28T20:48:30.709Z,11.02
2022-09-28T20:51:18.917Z,10.99
2022-09-28T20:53:53.846Z,10.94
2022-09-28T20:56:25.639Z,10.90
2022-09-28T20:58:53.067Z,10.87
2022-09-28T21:01:27.142Z,10.83
2022-09-28T21:03:56.532Z,10.78
2022-09-28T21:06:25.942Z,10.74
2022-09-28T21:08:53.235Z,10.73
2022-09-28T21:11:22.956Z,10.69
2022-09-28T21:13:58.389Z,10.64
2022-09-28T21:16:26.628Z,10.62
2022-09-28T21:18:53.826Z,10.59
2022-09-28T21:21:22.483Z,10.55
2022-09-28T21:23:52.590Z,10.56
2022-09-28T21:26:27.391Z,10.53
2022-09-28T21:29:10.428Z,10.51
2022-09-28T21:31:38.772Z,10.48
2022-09-28T21:34:05.883Z,10.44
2022-09-28T21:36:32.691Z,10.42
2022-09-28T21:38:59.561Z,10.40
2022-09-28T21:41:26.831Z,10.37
2022-09-28T21:43:53.883Z,10.36
2022-09-28T21:46:20.819Z,10.36
2022-09-28T21:48:52.569Z,10.34
2022-09-28T21:51:19.718Z,10.33
2022-09-28T21:53:46.520Z,10.30
2022-09-28T21:56:13.319Z,10.30
2022-09-28T21:58:40.872Z,10.29
2022-09-28T22:01:08.998Z,10.25
2022-09-28T22:03:36.824Z,10.23
2022-09-28T22:06:05.011Z,10.22
2022-09-28T22:08:32.228Z,10.22
2022-09-28T22:11:01.163Z,10.21
2022-09-28T22:13:36.199Z,10.22
2022-09-28T22:16:03.434Z,10.21
2022-09-28T22:18:31.757Z,10.20
2022-09-28T22:21:00.627Z,10.18
2022-09-28T22:23:28.538Z,10.15
2022-09-28T22:26:05.384Z,10.15
2022-09-28T22:28:32.017Z,10.13
2022-09-28T22:30:59.015Z,10.11
2022-09-28T22:33:26.785Z,10.09
2022-09-28T22:35:55.049Z,10.08
2022-09-28T22:38:24.912Z,10.05
2022-09-28T22:40:54.762Z,10.04
2022-09-28T22:43:24.498Z,10.04
2022-09-28T22:46:01.314Z,10.04
2022-09-28T22:48:28.008Z,10.01
2022-09-28T22:50:54.879Z,10.00
2022-09-28T22:53:21.847Z,9.99
2022-09-28T22:55:48.649Z,9.97
2022-09-28T22:58:15.303Z,9.92
2022-09-28T23:00:43.356Z,9.91
2022-09-28T23:03:10.142Z,9.86
2022-09-28T23:05:37.027Z,9.84
2022-09-28T23:08:04.291Z,9.81
2022-09-28T23:10:31.007Z,9.78
2022-09-28T23:12:58.420Z,9.77
2022-09-28T23:15:26.115Z,9.75
2022-09-28T23:17:53.413Z,9.73
2022-09-28T23:20:23.712Z,9.70
2022-09-28T23:22:53.441Z,9.66
2022-09-28T23:25:20.132Z,9.64
2022-09-28T23:27:47.981Z,9.60
2022-09-28T23:30:17.688Z,9.54
2022-09-28T23:32:44.591Z,9.50
2022-09-28T23:35:11.553Z,9.45
2022-09-28T23:37:38.880Z,9.41
2022-09-28T23:40:07.145Z,9.37
2022-09-28T23:42:34.984Z,9.35
2022-09-28T23:45:02.148Z,9.32
2022-09-28T23:47:29.286Z,9.29
2022-09-28T23:49:55.953Z,9.26
2022-09-28T23:52:22.819Z,9.23
2022-09-28T23:54:49.527Z,9.21
2022-09-28T23:57:16.123Z,9.19
2022-09-28T23:59:42.976Z,9.16
